Aviation Digital Data Service (ADDS)

Output produced by METARs form (0200 UTC 22 February 2019)
found at http://www.aviationweather.gov/metar/data/
 
METAR text: UKKK 220130Z 35004MPS 9999 FEW036 M04/M12 Q1017 R08/190060 NOSIG
Conditions at: UKKK (KIEV/ZHYLIANY , UA) observed 0130 UTC 22 February 2019
Temperature: -4.0°C (25°F)
Dewpoint: -12.0°C (10°F) [RH = 54%]
Pressure (altimeter): 30.03 inches Hg (1017.0 mb)
Winds: from the N (350 degrees) at 9 MPH (8 knots; 4.1 m/s)
Visibility: 6 or more miles (10+ km)
Ceiling: at least 12,000 feet AGL
Clouds: few clouds at 3600 feet AGL
Weather: no significant weather observed at this time

METAR text: UKKK 220100Z 36004MPS CAVOK M04/M12 Q1017 R08/190060 NOSIG
Conditions at: UKKK (KIEV/ZHYLIANY , UA) observed 0100 UTC 22 February 2019
Temperature: -4.0°C (25°F)
Dewpoint: -12.0°C (10°F) [RH = 54%]
Pressure (altimeter): 30.03 inches Hg (1017.0 mb)
Winds: from the N (360 degrees) at 9 MPH (8 knots; 4.1 m/s)
Visibility: 6 or more miles (10+ km)
Ceiling: ceiling and visibility are OK
Clouds: unknown
Weather: no significant weather observed at this time

METAR text: UKKK 220030Z 01005MPS CAVOK M04/M12 Q1017 R08/190060 NOSIG
Conditions at: UKKK (KIEV/ZHYLIANY , UA) observed 0030 UTC 22 February 2019
Temperature: -4.0°C (25°F)
Dewpoint: -12.0°C (10°F) [RH = 54%]
Pressure (altimeter): 30.03 inches Hg (1017.0 mb)
Winds: from the N (10 degrees) at 12 MPH (10 knots; 5.1 m/s)
Visibility: 6 or more miles (10+ km)
Ceiling: ceiling and visibility are OK
Clouds: unknown
Weather: no significant weather observed at this time

METAR text: UKKK 220000Z 36005MPS CAVOK M04/M12 Q1017 R08/190060 NOSIG
Conditions at: UKKK (KIEV/ZHYLIANY , UA) observed 0000 UTC 22 February 2019
Temperature: -4.0°C (25°F)
Dewpoint: -12.0°C (10°F) [RH = 54%]
Pressure (altimeter): 30.03 inches Hg (1017.0 mb)
Winds: from the N (360 degrees) at 12 MPH (10 knots; 5.1 m/s)
Visibility: 6 or more miles (10+ km)
Ceiling: ceiling and visibility are OK
Clouds: unknown
Weather: no significant weather observed at this time

METAR text: UKKK 212330Z 36004MPS 330V040 CAVOK M03/M12 Q1017 R26/190060 NOSIG
Conditions at: UKKK (KIEV/ZHYLIANY , UA) observed 2330 UTC 21 February 2019
Temperature: -3.0°C (27°F)
Dewpoint: -12.0°C (10°F) [RH = 50%]
Pressure (altimeter): 30.03 inches Hg (1017.0 mb)
Winds: from the N (360 degrees) at 9 MPH (8 knots; 4.1 m/s)
Visibility: 6 or more miles (10+ km)
Ceiling: ceiling and visibility are OK
Clouds: unknown
Weather: no significant weather observed at this time

METAR text: UKKK 212300Z 36005MPS CAVOK M03/M11 Q1017 R26/190060 NOSIG
Conditions at: UKKK (KIEV/ZHYLIANY , UA) observed 2300 UTC 21 February 2019
Temperature: -3.0°C (27°F)
Dewpoint: -11.0°C (12°F) [RH = 54%]
Pressure (altimeter): 30.03 inches Hg (1017.0 mb)
Winds: from the N (360 degrees) at 12 MPH (10 knots; 5.1 m/s)
Visibility: 6 or more miles (10+ km)
Ceiling: ceiling and visibility are OK
Clouds: unknown
Weather: no significant weather observed at this time

METAR text: UKKK 212230Z 01004MPS 340V050 CAVOK M03/M11 Q1017 R26/190060 NOSIG
Conditions at: UKKK (KIEV/ZHYLIANY , UA) observed 2230 UTC 21 February 2019
Temperature: -3.0°C (27°F)
Dewpoint: -11.0°C (12°F) [RH = 54%]
Pressure (altimeter): 30.03 inches Hg (1017.0 mb)
Winds: from the N (10 degrees) at 9 MPH (8 knots; 4.1 m/s)
Visibility: 6 or more miles (10+ km)
Ceiling: ceiling and visibility are OK
Clouds: unknown
Weather: no significant weather observed at this time

METAR text: UKKK 212200Z 02005MPS 340V050 CAVOK M03/M11 Q1017 R26/190060 NOSIG
Conditions at: UKKK (KIEV/ZHYLIANY , UA) observed 2200 UTC 21 February 2019
Temperature: -3.0°C (27°F)
Dewpoint: -11.0°C (12°F) [RH = 54%]
Pressure (altimeter): 30.03 inches Hg (1017.0 mb)
Winds: from the NNE (20 degrees) at 12 MPH (10 knots; 5.1 m/s)
Visibility: 6 or more miles (10+ km)
Ceiling: ceiling and visibility are OK
Clouds: unknown
Weather: no significant weather observed at this time

METAR text: UKKK 212130Z 35003MPS CAVOK M03/M10 Q1017 R26/190060 NOSIG
Conditions at: UKKK (KIEV/ZHYLIANY , UA) observed 2130 UTC 21 February 2019
Temperature: -3.0°C (27°F)
Dewpoint: -10.0°C (14°F) [RH = 58%]
Pressure (altimeter): 30.03 inches Hg (1017.0 mb)
Winds: from the N (350 degrees) at 7 MPH (6 knots; 3.1 m/s)
Visibility: 6 or more miles (10+ km)
Ceiling: ceiling and visibility are OK
Clouds: unknown
Weather: no significant weather observed at this time

METAR text: UKKK 212100Z 33004MPS CAVOK M03/M10 Q1016 R26/190060 NOSIG
Conditions at: UKKK (KIEV/ZHYLIANY , UA) observed 2100 UTC 21 February 2019
Temperature: -3.0°C (27°F)
Dewpoint: -10.0°C (14°F) [RH = 58%]
Pressure (altimeter): 30.00 inches Hg (1016.0 mb)
Winds: from the NNW (330 degrees) at 9 MPH (8 knots; 4.1 m/s)
Visibility: 6 or more miles (10+ km)
Ceiling: ceiling and visibility are OK
Clouds: unknown
Weather: no significant weather observed at this time

METAR text: UKKK 212030Z 34004MPS CAVOK M03/M10 Q1016 R26/190060 NOSIG
Conditions at: UKKK (KIEV/ZHYLIANY , UA) observed 2030 UTC 21 February 2019
Temperature: -3.0°C (27°F)
Dewpoint: -10.0°C (14°F) [RH = 58%]
Pressure (altimeter): 30.00 inches Hg (1016.0 mb)
Winds: from the NNW (340 degrees) at 9 MPH (8 knots; 4.1 m/s)
Visibility: 6 or more miles (10+ km)
Ceiling: ceiling and visibility are OK
Clouds: unknown
Weather: no significant weather observed at this time

METAR text: UKKK 212000Z 33004MPS CAVOK M02/M10 Q1016 R26/190060 NOSIG
Conditions at: UKKK (KIEV/ZHYLIANY , UA) observed 2000 UTC 21 February 2019
Temperature: -2.0°C (28°F)
Dewpoint: -10.0°C (14°F) [RH = 54%]
Pressure (altimeter): 30.00 inches Hg (1016.0 mb)
Winds: from the NNW (330 degrees) at 9 MPH (8 knots; 4.1 m/s)
Visibility: 6 or more miles (10+ km)
Ceiling: ceiling and visibility are OK
Clouds: unknown
Weather: no significant weather observed at this time

METAR text: UKKK 211930Z 34004MPS 310V010 CAVOK M02/M10 Q1016 R26/190060 NOSIG
Conditions at: UKKK (KIEV/ZHYLIANY , UA) observed 1930 UTC 21 February 2019
Temperature: -2.0°C (28°F)
Dewpoint: -10.0°C (14°F) [RH = 54%]
Pressure (altimeter): 30.00 inches Hg (1016.0 mb)
Winds: from the NNW (340 degrees) at 9 MPH (8 knots; 4.1 m/s)
Visibility: 6 or more miles (10+ km)
Ceiling: ceiling and visibility are OK
Clouds: unknown
Weather: no significant weather observed at this time

METAR text: UKKK 211900Z 34005MPS 310V010 CAVOK M02/M10 Q1016 R26/190060 NOSIG
Conditions at: UKKK (KIEV/ZHYLIANY , UA) observed 1900 UTC 21 February 2019
Temperature: -2.0°C (28°F)
Dewpoint: -10.0°C (14°F) [RH = 54%]
Pressure (altimeter): 30.00 inches Hg (1016.0 mb)
Winds: from the NNW (340 degrees) at 12 MPH (10 knots; 5.1 m/s)
Visibility: 6 or more miles (10+ km)
Ceiling: ceiling and visibility are OK
Clouds: unknown
Weather: no significant weather observed at this time

METAR text: UKKK 211830Z 34005MPS CAVOK M02/M10 Q1016 R26/190060 NOSIG
Conditions at: UKKK (KIEV/ZHYLIANY , UA) observed 1830 UTC 21 February 2019
Temperature: -2.0°C (28°F)
Dewpoint: -10.0°C (14°F) [RH = 54%]
Pressure (altimeter): 30.00 inches Hg (1016.0 mb)
Winds: from the NNW (340 degrees) at 12 MPH (10 knots; 5.1 m/s)
Visibility: 6 or more miles (10+ km)
Ceiling: ceiling and visibility are OK
Clouds: unknown
Weather: no significant weather observed at this time

METAR text: UKKK 211800Z 34005MPS CAVOK M01/M10 Q1016 R26/190060 NOSIG
Conditions at: UKKK (KIEV/ZHYLIANY , UA) observed 1800 UTC 21 February 2019
Temperature: -1.0°C (30°F)
Dewpoint: -10.0°C (14°F) [RH = 50%]
Pressure (altimeter): 30.00 inches Hg (1016.0 mb)
Winds: from the NNW (340 degrees) at 12 MPH (10 knots; 5.1 m/s)
Visibility: 6 or more miles (10+ km)
Ceiling: ceiling and visibility are OK
Clouds: unknown
Weather: no significant weather observed at this time

METAR text: UKKK 211730Z 34005MPS 310V010 CAVOK M01/M10 Q1016 R26/190060 TEMPO 33010G17MPS
Conditions at: UKKK (KIEV/ZHYLIANY , UA) observed 1730 UTC 21 February 2019
Temperature: -1.0°C (30°F)
Dewpoint: -10.0°C (14°F) [RH = 50%]
Pressure (altimeter): 30.00 inches Hg (1016.0 mb)
Winds: from the NNW (340 degrees) at 12 MPH (10 knots; 5.1 m/s)
Visibility: 6 or more miles (10+ km)
Ceiling: ceiling and visibility are OK
Clouds: unknown
Weather: no significant weather observed at this time

METAR text: UKKK 211700Z 34005MPS CAVOK M00/M09 Q1016 R26/190060 TEMPO 33010G17MPS
Conditions at: UKKK (KIEV/ZHYLIANY , UA) observed 1700 UTC 21 February 2019
Temperature: 0.0°C (32°F)
Dewpoint: -9.0°C (16°F) [RH = 51%]
Pressure (altimeter): 30.00 inches Hg (1016.0 mb)
Winds: from the NNW (340 degrees) at 12 MPH (10 knots; 5.1 m/s)
Visibility: 6 or more miles (10+ km)
Ceiling: ceiling and visibility are OK
Clouds: unknown
Weather: no significant weather observed at this time

METAR text: UKKK 211630Z 35005MPS 320V020 CAVOK 00/M09 Q1015 R26/190060 TEMPO 33010G17MPS
Conditions at: UKKK (KIEV/ZHYLIANY , UA) observed 1630 UTC 21 February 2019
Temperature: 0.0°C (32°F)
Dewpoint: -9.0°C (16°F) [RH = 51%]
Pressure (altimeter): 29.97 inches Hg (1015.0 mb)
Winds: from the N (350 degrees) at 12 MPH (10 knots; 5.1 m/s)
Visibility: 6 or more miles (10+ km)
Ceiling: ceiling and visibility are OK
Clouds: unknown
Weather: no significant weather observed at this time

METAR text: UKKK 211600Z 34006MPS CAVOK 00/M10 Q1015 R26/190060 TEMPO 33010G17MPS
Conditions at: UKKK (KIEV/ZHYLIANY , UA) observed 1600 UTC 21 February 2019
Temperature: 0.0°C (32°F)
Dewpoint: -10.0°C (14°F) [RH = 47%]
Pressure (altimeter): 29.97 inches Hg (1015.0 mb)
Winds: from the NNW (340 degrees) at 14 MPH (12 knots; 6.2 m/s)
Visibility: 6 or more miles (10+ km)
Ceiling: ceiling and visibility are OK
Clouds: unknown
Weather: no significant weather observed at this time

METAR text: UKKK 211530Z 33006MPS CAVOK 01/M11 Q1015 R26/190060 TEMPO 33010G17MPS
Conditions at: UKKK (KIEV/ZHYLIANY , UA) observed 1530 UTC 21 February 2019
Temperature: 1.0°C (34°F)
Dewpoint: -11.0°C (12°F) [RH = 40%]
Pressure (altimeter): 29.97 inches Hg (1015.0 mb)
Winds: from the NNW (330 degrees) at 14 MPH (12 knots; 6.2 m/s)
Visibility: 6 or more miles (10+ km)
Ceiling: ceiling and visibility are OK
Clouds: unknown
Weather: no significant weather observed at this time

METAR text: UKKK 211500Z 33006MPS 300V360 CAVOK 02/M10 Q1014 R26/190060 TEMPO 33010G17MPS
Conditions at: UKKK (KIEV/ZHYLIANY , UA) observed 1500 UTC 21 February 2019
Temperature: 2.0°C (36°F)
Dewpoint: -10.0°C (14°F) [RH = 41%]
Pressure (altimeter): 29.94 inches Hg (1014.0 mb)
Winds: from the NNW (330 degrees) at 14 MPH (12 knots; 6.2 m/s)
Visibility: 6 or more miles (10+ km)
Ceiling: ceiling and visibility are OK
Clouds: unknown
Weather: no significant weather observed at this time

METAR text: UKKK 211430Z 32008G13MPS CAVOK 02/M11 Q1014 R26/190060 TEMPO 33010G17MPS
Conditions at: UKKK (KIEV/ZHYLIANY , UA) observed 1430 UTC 21 February 2019
Temperature: 2.0°C (36°F)
Dewpoint: -11.0°C (12°F) [RH = 37%]
Pressure (altimeter): 29.94 inches Hg (1014.0 mb)
Winds: from the NW (320 degrees) at 18 MPH (16 knots; 8.2 m/s)
gusting to 29 MPH (25 knots; 12.9 m/s)
Visibility: 6 or more miles (10+ km)
Ceiling: ceiling and visibility are OK
Clouds: unknown
Weather: no significant weather observed at this time

METAR text: UKKK 211400Z 32009MPS CAVOK 03/M10 Q1014 R26/190060 TEMPO 33010G17MPS
Conditions at: UKKK (KIEV/ZHYLIANY , UA) observed 1400 UTC 21 February 2019
Temperature: 3.0°C (37°F)
Dewpoint: -10.0°C (14°F) [RH = 38%]
Pressure (altimeter): 29.94 inches Hg (1014.0 mb)
Winds: from the NW (320 degrees) at 20 MPH (17 knots; 8.7 m/s)
Visibility: 6 or more miles (10+ km)
Ceiling: ceiling and visibility are OK
Clouds: unknown
Weather: no significant weather observed at this time

METAR text: UKKK 211336Z 31008G13MPS CAVOK 03/M10 Q1014 R26/190060 TEMPO 33010G17MPS
Conditions at: UKKK (KIEV/ZHYLIANY , UA) observed 1336 UTC 21 February 2019
Temperature: 3.0°C (37°F)
Dewpoint: -10.0°C (14°F) [RH = 38%]
Pressure (altimeter): 29.94 inches Hg (1014.0 mb)
Winds: from the NW (310 degrees) at 18 MPH (16 knots; 8.2 m/s)
gusting to 29 MPH (25 knots; 12.9 m/s)
Visibility: 6 or more miles (10+ km)
Ceiling: ceiling and visibility are OK
Clouds: unknown
Weather: no significant weather observed at this time

METAR text: UKKK 211330Z 31008MPS 290V010 CAVOK 03/M10 Q1014 R26/190060 TEMPO 33010G17MPS
Conditions at: UKKK (KIEV/ZHYLIANY , UA) observed 1330 UTC 21 February 2019
Temperature: 3.0°C (37°F)
Dewpoint: -10.0°C (14°F) [RH = 38%]
Pressure (altimeter): 29.94 inches Hg (1014.0 mb)
Winds: from the NW (310 degrees) at 18 MPH (16 knots; 8.2 m/s)
Visibility: 6 or more miles (10+ km)
Ceiling: ceiling and visibility are OK
Clouds: unknown
Weather: no significant weather observed at this time

METAR text: UKKK 211300Z 32009G14MPS CAVOK 03/M10 Q1013 R26/190060 TEMPO 33010G17MPS
Conditions at: UKKK (KIEV/ZHYLIANY , UA) observed 1300 UTC 21 February 2019
Temperature: 3.0°C (37°F)
Dewpoint: -10.0°C (14°F) [RH = 38%]
Pressure (altimeter): 29.91 inches Hg (1013.0 mb)
Winds: from the NW (320 degrees) at 20 MPH (17 knots; 8.7 m/s)
gusting to 31 MPH (27 knots; 13.9 m/s)
Visibility: 6 or more miles (10+ km)
Ceiling: ceiling and visibility are OK
Clouds: unknown
Weather: no significant weather observed at this time

METAR text: UKKK 211254Z 32009G14MPS CAVOK 03/M10 Q1013 R26/190060 TEMPO 33010G17MPS
Conditions at: UKKK (KIEV/ZHYLIANY , UA) observed 1254 UTC 21 February 2019
Temperature: 3.0°C (37°F)
Dewpoint: -10.0°C (14°F) [RH = 38%]
Pressure (altimeter): 29.91 inches Hg (1013.0 mb)
Winds: from the NW (320 degrees) at 20 MPH (17 knots; 8.7 m/s)
gusting to 31 MPH (27 knots; 13.9 m/s)
Visibility: 6 or more miles (10+ km)
Ceiling: ceiling and visibility are OK
Clouds: unknown
Weather: no significant weather observed at this time

METAR text: UKKK 211230Z 32007MPS 290V350 CAVOK 03/M09 Q1013 R26/190060 TEMPO 33010G17MPS
Conditions at: UKKK (KIEV/ZHYLIANY , UA) observed 1230 UTC 21 February 2019
Temperature: 3.0°C (37°F)
Dewpoint: -9.0°C (16°F) [RH = 41%]
Pressure (altimeter): 29.91 inches Hg (1013.0 mb)
Winds: from the NW (320 degrees) at 16 MPH (14 knots; 7.2 m/s)
Visibility: 6 or more miles (10+ km)
Ceiling: ceiling and visibility are OK
Clouds: unknown
Weather: no significant weather observed at this time

METAR text: UKKK 211200Z 30011MPS CAVOK 03/M10 Q1013 R26/190060 TEMPO 33010G17MPS
Conditions at: UKKK (KIEV/ZHYLIANY , UA) observed 1200 UTC 21 February 2019
Temperature: 3.0°C (37°F)
Dewpoint: -10.0°C (14°F) [RH = 38%]
Pressure (altimeter): 29.91 inches Hg (1013.0 mb)
Winds: from the WNW (300 degrees) at 24 MPH (21 knots; 10.8 m/s)
Visibility: 6 or more miles (10+ km)
Ceiling: ceiling and visibility are OK
Clouds: unknown
Weather: no significant weather observed at this time

METAR text: UKKK 211140Z 30009G16MPS CAVOK 03/M10 Q1013 R26/190060 TEMPO 33010G17MPS
Conditions at: UKKK (KIEV/ZHYLIANY , UA) observed 1140 UTC 21 February 2019
Temperature: 3.0°C (37°F)
Dewpoint: -10.0°C (14°F) [RH = 38%]
Pressure (altimeter): 29.91 inches Hg (1013.0 mb)
Winds: from the WNW (300 degrees) at 20 MPH (17 knots; 8.7 m/s)
gusting to 36 MPH (31 knots; 15.9 m/s)
Visibility: 6 or more miles (10+ km)
Ceiling: ceiling and visibility are OK
Clouds: unknown
Weather: no significant weather observed at this time

METAR text: UKKK 211130Z 31009MPS CAVOK 02/M10 Q1013 R26/190060 TEMPO 30010G17MPS
Conditions at: UKKK (KIEV/ZHYLIANY , UA) observed 1130 UTC 21 February 2019
Temperature: 2.0°C (36°F)
Dewpoint: -10.0°C (14°F) [RH = 41%]
Pressure (altimeter): 29.91 inches Hg (1013.0 mb)
Winds: from the NW (310 degrees) at 20 MPH (17 knots; 8.7 m/s)
Visibility: 6 or more miles (10+ km)
Ceiling: ceiling and visibility are OK
Clouds: unknown
Weather: no significant weather observed at this time

METAR text: UKKK 211100Z 31011G16MPS CAVOK 03/M09 Q1013 R26/190060 TEMPO 30010G17MPS
Conditions at: UKKK (KIEV/ZHYLIANY , UA) observed 1100 UTC 21 February 2019
Temperature: 3.0°C (37°F)
Dewpoint: -9.0°C (16°F) [RH = 41%]
Pressure (altimeter): 29.91 inches Hg (1013.0 mb)
Winds: from the NW (310 degrees) at 24 MPH (21 knots; 10.8 m/s)
gusting to 36 MPH (31 knots; 15.9 m/s)
Visibility: 6 or more miles (10+ km)
Ceiling: ceiling and visibility are OK
Clouds: unknown
Weather: no significant weather observed at this time

METAR text: UKKK 211030Z 31010G15MPS 9999 SCT040 02/M09 Q1013 R26/190060 TEMPO 30010G17MPS
Conditions at: UKKK (KIEV/ZHYLIANY , UA) observed 1030 UTC 21 February 2019
Temperature: 2.0°C (36°F)
Dewpoint: -9.0°C (16°F) [RH = 44%]
Pressure (altimeter): 29.91 inches Hg (1013.0 mb)
Winds: from the NW (310 degrees) at 22 MPH (19 knots; 9.8 m/s)
gusting to 33 MPH (29 knots; 14.9 m/s)
Visibility: 6 or more miles (10+ km)
Ceiling: at least 12,000 feet AGL
Clouds: scattered clouds at 4000 feet AGL
Weather: no significant weather observed at this time

METAR text: UKKK 211026Z 31009G15MPS 9999 SCT040 02/M09 Q1014 R26/190060 TEMPO 30010G17MPS
Conditions at: UKKK (KIEV/ZHYLIANY , UA) observed 1026 UTC 21 February 2019
Temperature: 2.0°C (36°F)
Dewpoint: -9.0°C (16°F) [RH = 44%]
Pressure (altimeter): 29.94 inches Hg (1014.0 mb)
Winds: from the NW (310 degrees) at 20 MPH (17 knots; 8.7 m/s)
gusting to 33 MPH (29 knots; 14.9 m/s)
Visibility: 6 or more miles (10+ km)
Ceiling: at least 12,000 feet AGL
Clouds: scattered clouds at 4000 feet AGL
Weather: no significant weather observed at this time

METAR text: UKKK 211000Z 31009MPS 9999 SCT042 02/M08 Q1014 R26/190060 TEMPO 30010G17MPS
Conditions at: UKKK (KIEV/ZHYLIANY , UA) observed 1000 UTC 21 February 2019
Temperature: 2.0°C (36°F)
Dewpoint: -8.0°C (18°F) [RH = 47%]
Pressure (altimeter): 29.94 inches Hg (1014.0 mb)
Winds: from the NW (310 degrees) at 20 MPH (17 knots; 8.7 m/s)
Visibility: 6 or more miles (10+ km)
Ceiling: at least 12,000 feet AGL
Clouds: scattered clouds at 4200 feet AGL
Weather: no significant weather observed at this time

METAR text: UKKK 210930Z 30010MPS 9999 SCT038 01/M08 Q1014 R26/190060 TEMPO 30010G17MPS
Conditions at: UKKK (KIEV/ZHYLIANY , UA) observed 0930 UTC 21 February 2019
Temperature: 1.0°C (34°F)
Dewpoint: -8.0°C (18°F) [RH = 51%]
Pressure (altimeter): 29.94 inches Hg (1014.0 mb)
Winds: from the WNW (300 degrees) at 22 MPH (19 knots; 9.8 m/s)
Visibility: 6 or more miles (10+ km)
Ceiling: at least 12,000 feet AGL
Clouds: scattered clouds at 3800 feet AGL
Weather: no significant weather observed at this time

METAR text: UKKK 210918Z 29009G14MPS 9999 SCT037 01/M08 Q1014 R26/190060 TEMPO 30010G17MPS
Conditions at: UKKK (KIEV/ZHYLIANY , UA) observed 0918 UTC 21 February 2019
Temperature: 1.0°C (34°F)
Dewpoint: -8.0°C (18°F) [RH = 51%]
Pressure (altimeter): 29.94 inches Hg (1014.0 mb)
Winds: from the WNW (290 degrees) at 20 MPH (17 knots; 8.7 m/s)
gusting to 31 MPH (27 knots; 13.9 m/s)
Visibility: 6 or more miles (10+ km)
Ceiling: at least 12,000 feet AGL
Clouds: scattered clouds at 3700 feet AGL
Weather: no significant weather observed at this time

METAR text: UKKK 210900Z 31008MPS 9999 BKN037 01/M08 Q1014 R26/190060 TEMPO 30010G17MPS
Conditions at: UKKK (KIEV/ZHYLIANY , UA) observed 0900 UTC 21 February 2019
Temperature: 1.0°C (34°F)
Dewpoint: -8.0°C (18°F) [RH = 51%]
Pressure (altimeter): 29.94 inches Hg (1014.0 mb)
Winds: from the NW (310 degrees) at 18 MPH (16 knots; 8.2 m/s)
Visibility: 6 or more miles (10+ km)
Ceiling: 3700 feet AGL
Clouds: broken clouds at 3700 feet AGL
Weather: no significant weather observed at this time

METAR text: UKKK 210830Z 31010MPS 9999 BKN038 00/M08 Q1014 R26/190060 TEMPO 30010G17MPS
Conditions at: UKKK (KIEV/ZHYLIANY , UA) observed 0830 UTC 21 February 2019
Temperature: 0.0°C (32°F)
Dewpoint: -8.0°C (18°F) [RH = 55%]
Pressure (altimeter): 29.94 inches Hg (1014.0 mb)
Winds: from the NW (310 degrees) at 22 MPH (19 knots; 9.8 m/s)
Visibility: 6 or more miles (10+ km)
Ceiling: 3800 feet AGL
Clouds: broken clouds at 3800 feet AGL
Weather: no significant weather observed at this time

METAR text: UKKK 210810Z 30008G13MPS 9999 BKN035 00/M08 Q1014 R26/190060 TEMPO 30010G17MPS
Conditions at: UKKK (KIEV/ZHYLIANY , UA) observed 0810 UTC 21 February 2019
Temperature: 0.0°C (32°F)
Dewpoint: -8.0°C (18°F) [RH = 55%]
Pressure (altimeter): 29.94 inches Hg (1014.0 mb)
Winds: from the WNW (300 degrees) at 18 MPH (16 knots; 8.2 m/s)
gusting to 29 MPH (25 knots; 12.9 m/s)
Visibility: 6 or more miles (10+ km)
Ceiling: 3500 feet AGL
Clouds: broken clouds at 3500 feet AGL
Weather: no significant weather observed at this time

METAR text: UKKK 210800Z 32008MPS 9999 BKN035 00/M08 Q1014 R26/190060 TEMPO 30010G17MPS
Conditions at: UKKK (KIEV/ZHYLIANY , UA) observed 0800 UTC 21 February 2019
Temperature: 0.0°C (32°F)
Dewpoint: -8.0°C (18°F) [RH = 55%]
Pressure (altimeter): 29.94 inches Hg (1014.0 mb)
Winds: from the NW (320 degrees) at 18 MPH (16 knots; 8.2 m/s)
Visibility: 6 or more miles (10+ km)
Ceiling: 3500 feet AGL
Clouds: broken clouds at 3500 feet AGL
Weather: no significant weather observed at this time

METAR text: UKKK 210734Z 31009G14MPS 9999 BKN039 M00/M09 Q1014 R26/190060 TEMPO 30010G17MPS
Conditions at: UKKK (KIEV/ZHYLIANY , UA) observed 0734 UTC 21 February 2019
Temperature: 0.0°C (32°F)
Dewpoint: -9.0°C (16°F) [RH = 51%]
Pressure (altimeter): 29.94 inches Hg (1014.0 mb)
Winds: from the NW (310 degrees) at 20 MPH (17 knots; 8.7 m/s)
gusting to 31 MPH (27 knots; 13.9 m/s)
Visibility: 6 or more miles (10+ km)
Ceiling: 3900 feet AGL
Clouds: broken clouds at 3900 feet AGL
Weather: no significant weather observed at this time

METAR text: UKKK 210730Z 31009MPS 9999 BKN038 M00/M09 Q1013 R26/190060 TEMPO 30010G17MPS
Conditions at: UKKK (KIEV/ZHYLIANY , UA) observed 0730 UTC 21 February 2019
Temperature: 0.0°C (32°F)
Dewpoint: -9.0°C (16°F) [RH = 51%]
Pressure (altimeter): 29.91 inches Hg (1013.0 mb)
Winds: from the NW (310 degrees) at 20 MPH (17 knots; 8.7 m/s)
Visibility: 6 or more miles (10+ km)
Ceiling: 3800 feet AGL
Clouds: broken clouds at 3800 feet AGL
Weather: no significant weather observed at this time

METAR text: UKKK 210707Z 31009G14MPS 9999 BKN034 M00/M08 Q1013 R26/190060 TEMPO 30010G17MPS
Conditions at: UKKK (KIEV/ZHYLIANY , UA) observed 0707 UTC 21 February 2019
Temperature: 0.0°C (32°F)
Dewpoint: -8.0°C (18°F) [RH = 55%]
Pressure (altimeter): 29.91 inches Hg (1013.0 mb)
Winds: from the NW (310 degrees) at 20 MPH (17 knots; 8.7 m/s)
gusting to 31 MPH (27 knots; 13.9 m/s)
Visibility: 6 or more miles (10+ km)
Ceiling: 3400 feet AGL
Clouds: broken clouds at 3400 feet AGL
Weather: no significant weather observed at this time

METAR text: UKKK 210700Z 30007MPS 9999 BKN035 M00/M08 Q1013 R26/190060 TEMPO 30010G17MPS
Conditions at: UKKK (KIEV/ZHYLIANY , UA) observed 0700 UTC 21 February 2019
Temperature: 0.0°C (32°F)
Dewpoint: -8.0°C (18°F) [RH = 55%]
Pressure (altimeter): 29.91 inches Hg (1013.0 mb)
Winds: from the WNW (300 degrees) at 16 MPH (14 knots; 7.2 m/s)
Visibility: 6 or more miles (10+ km)
Ceiling: 3500 feet AGL
Clouds: broken clouds at 3500 feet AGL
Weather: no significant weather observed at this time

METAR text: UKKK 210630Z 31009G14MPS 9999 BKN034 M00/M07 Q1013 R26/290050 TEMPO 30010G17MPS
Conditions at: UKKK (KIEV/ZHYLIANY , UA) observed 0630 UTC 21 February 2019
Temperature: 0.0°C (32°F)
Dewpoint: -7.0°C (19°F) [RH = 59%]
Pressure (altimeter): 29.91 inches Hg (1013.0 mb)
Winds: from the NW (310 degrees) at 20 MPH (17 knots; 8.7 m/s)
gusting to 31 MPH (27 knots; 13.9 m/s)
Visibility: 6 or more miles (10+ km)
Ceiling: 3400 feet AGL
Clouds: broken clouds at 3400 feet AGL
Weather: no significant weather observed at this time

METAR text: UKKK 210614Z 31011G16MPS 9999 BKN034 M00/M08 Q1013 R26/290050 TEMPO 30010G17MPS
Conditions at: UKKK (KIEV/ZHYLIANY , UA) observed 0614 UTC 21 February 2019
Temperature: 0.0°C (32°F)
Dewpoint: -8.0°C (18°F) [RH = 55%]
Pressure (altimeter): 29.91 inches Hg (1013.0 mb)
Winds: from the NW (310 degrees) at 24 MPH (21 knots; 10.8 m/s)
gusting to 36 MPH (31 knots; 15.9 m/s)
Visibility: 6 or more miles (10+ km)
Ceiling: 3400 feet AGL
Clouds: broken clouds at 3400 feet AGL
Weather: no significant weather observed at this time

METAR text: UKKK 210600Z 32011MPS 9999 BKN035 M00/M08 Q1013 R26/290050 TEMPO 30010G17MPS
Conditions at: UKKK (KIEV/ZHYLIANY , UA) observed 0600 UTC 21 February 2019
Temperature: 0.0°C (32°F)
Dewpoint: -8.0°C (18°F) [RH = 55%]
Pressure (altimeter): 29.91 inches Hg (1013.0 mb)
Winds: from the NW (320 degrees) at 24 MPH (21 knots; 10.8 m/s)
Visibility: 6 or more miles (10+ km)
Ceiling: 3500 feet AGL
Clouds: broken clouds at 3500 feet AGL
Weather: no significant weather observed at this time

METAR text: UKKK 210530Z 32008G14MPS 9999 BKN037 00/M07 Q1013 R26/290050 TEMPO 30010G17MPS
Conditions at: UKKK (KIEV/ZHYLIANY , UA) observed 0530 UTC 21 February 2019
Temperature: 0.0°C (32°F)
Dewpoint: -7.0°C (19°F) [RH = 59%]
Pressure (altimeter): 29.91 inches Hg (1013.0 mb)
Winds: from the NW (320 degrees) at 18 MPH (16 knots; 8.2 m/s)
gusting to 31 MPH (27 knots; 13.9 m/s)
Visibility: 6 or more miles (10+ km)
Ceiling: 3700 feet AGL
Clouds: broken clouds at 3700 feet AGL
Weather: no significant weather observed at this time

METAR text: UKKK 210500Z 31009MPS 9999 SCT036 00/M07 Q1012 R26/290050 TEMPO 30010G17MPS
Conditions at: UKKK (KIEV/ZHYLIANY , UA) observed 0500 UTC 21 February 2019
Temperature: 0.0°C (32°F)
Dewpoint: -7.0°C (19°F) [RH = 59%]
Pressure (altimeter): 29.88 inches Hg (1012.0 mb)
Winds: from the NW (310 degrees) at 20 MPH (17 knots; 8.7 m/s)
Visibility: 6 or more miles (10+ km)
Ceiling: at least 12,000 feet AGL
Clouds: scattered clouds at 3600 feet AGL
Weather: no significant weather observed at this time

METAR text: UKKK 210430Z 31009G14MPS 9999 SCT032 01/M07 Q1012 R26/290050 TEMPO 30010G17MPS
Conditions at: UKKK (KIEV/ZHYLIANY , UA) observed 0430 UTC 21 February 2019
Temperature: 1.0°C (34°F)
Dewpoint: -7.0°C (19°F) [RH = 55%]
Pressure (altimeter): 29.88 inches Hg (1012.0 mb)
Winds: from the NW (310 degrees) at 20 MPH (17 knots; 8.7 m/s)
gusting to 31 MPH (27 knots; 13.9 m/s)
Visibility: 6 or more miles (10+ km)
Ceiling: at least 12,000 feet AGL
Clouds: scattered clouds at 3200 feet AGL
Weather: no significant weather observed at this time

METAR text: UKKK 210400Z 30007G12MPS 9999 BKN032 02/M06 Q1011 R26/290050 TEMPO 30010G17MPS
Conditions at: UKKK (KIEV/ZHYLIANY , UA) observed 0400 UTC 21 February 2019
Temperature: 2.0°C (36°F)
Dewpoint: -6.0°C (21°F) [RH = 55%]
Pressure (altimeter): 29.85 inches Hg (1011.0 mb)
Winds: from the WNW (300 degrees) at 16 MPH (14 knots; 7.2 m/s)
gusting to 26 MPH (23 knots; 11.8 m/s)
Visibility: 6 or more miles (10+ km)
Ceiling: 3200 feet AGL
Clouds: broken clouds at 3200 feet AGL
Weather: no significant weather observed at this time

METAR text: UKKK 210330Z 31007MPS 9999 BKN031 02/M05 Q1011 R26/290050 TEMPO 30010G17MPS
Conditions at: UKKK (KIEV/ZHYLIANY , UA) observed 0330 UTC 21 February 2019
Temperature: 2.0°C (36°F)
Dewpoint: -5.0°C (23°F) [RH = 60%]
Pressure (altimeter): 29.85 inches Hg (1011.0 mb)
Winds: from the NW (310 degrees) at 16 MPH (14 knots; 7.2 m/s)
Visibility: 6 or more miles (10+ km)
Ceiling: 3100 feet AGL
Clouds: broken clouds at 3100 feet AGL
Weather: no significant weather observed at this time

METAR text: UKKK 210300Z 30009MPS 9999 BKN032 02/M04 Q1011 R26/290050 TEMPO 30010G17MPS
Conditions at: UKKK (KIEV/ZHYLIANY , UA) observed 0300 UTC 21 February 2019
Temperature: 2.0°C (36°F)
Dewpoint: -4.0°C (25°F) [RH = 64%]
Pressure (altimeter): 29.85 inches Hg (1011.0 mb)
Winds: from the WNW (300 degrees) at 20 MPH (17 knots; 8.7 m/s)
Visibility: 6 or more miles (10+ km)
Ceiling: 3200 feet AGL
Clouds: broken clouds at 3200 feet AGL
Weather: no significant weather observed at this time

METAR text: UKKK 210230Z 30010MPS 9999 BKN038 02/M04 Q1011 R26/290050 TEMPO 30010G17MPS
Conditions at: UKKK (KIEV/ZHYLIANY , UA) observed 0230 UTC 21 February 2019
Temperature: 2.0°C (36°F)
Dewpoint: -4.0°C (25°F) [RH = 64%]
Pressure (altimeter): 29.85 inches Hg (1011.0 mb)
Winds: from the WNW (300 degrees) at 22 MPH (19 knots; 9.8 m/s)
Visibility: 6 or more miles (10+ km)
Ceiling: 3800 feet AGL
Clouds: broken clouds at 3800 feet AGL
Weather: no significant weather observed at this time

METAR text: UKKK 210200Z 30009G14MPS 9999 BKN047 03/M04 Q1011 R26/290050 TEMPO 30010G17MPS
Conditions at: UKKK (KIEV/ZHYLIANY , UA) observed 0200 UTC 21 February 2019
Temperature: 3.0°C (37°F)
Dewpoint: -4.0°C (25°F) [RH = 60%]
Pressure (altimeter): 29.85 inches Hg (1011.0 mb)
Winds: from the WNW (300 degrees) at 20 MPH (17 knots; 8.7 m/s)
gusting to 31 MPH (27 knots; 13.9 m/s)
Visibility: 6 or more miles (10+ km)
Ceiling: 4700 feet AGL
Clouds: broken clouds at 4700 feet AGL
Weather: no significant weather observed at this time

METAR text: UKKK 210130Z 31008MPS 9999 BKN046 04/M03 Q1010 R26/290050 TEMPO 30010G17MPS
Conditions at: UKKK (KIEV/ZHYLIANY , UA) observed 0130 UTC 21 February 2019
Temperature: 4.0°C (39°F)
Dewpoint: -3.0°C (27°F) [RH = 60%]
Pressure (altimeter): 29.82 inches Hg (1010.0 mb)
Winds: from the NW (310 degrees) at 18 MPH (16 knots; 8.2 m/s)
Visibility: 6 or more miles (10+ km)
Ceiling: 4600 feet AGL
Clouds: broken clouds at 4600 feet AGL
Weather: no significant weather observed at this time

METAR text: UKKK 210100Z 29010MPS CAVOK 04/M01 Q1010 R26/290050 TEMPO 30010G17MPS
Conditions at: UKKK (KIEV/ZHYLIANY , UA) observed 0100 UTC 21 February 2019
Temperature: 4.0°C (39°F)
Dewpoint: -1.0°C (30°F) [RH = 70%]
Pressure (altimeter): 29.82 inches Hg (1010.0 mb)
Winds: from the WNW (290 degrees) at 22 MPH (19 knots; 9.8 m/s)
Visibility: 6 or more miles (10+ km)
Ceiling: ceiling and visibility are OK
Clouds: unknown
Weather: no significant weather observed at this time

METAR text: UKKK 210030Z 27006MPS 9999 BKN034 04/M00 Q1010 R26/290050 TEMPO 30010G17MPS
Conditions at: UKKK (KIEV/ZHYLIANY , UA) observed 0030 UTC 21 February 2019
Temperature: 4.0°C (39°F)
Dewpoint: 0.0°C (32°F) [RH = 75%]
Pressure (altimeter): 29.82 inches Hg (1010.0 mb)
Winds: from the W (270 degrees) at 14 MPH (12 knots; 6.2 m/s)
Visibility: 6 or more miles (10+ km)
Ceiling: 3400 feet AGL
Clouds: broken clouds at 3400 feet AGL
Weather: no significant weather observed at this time

METAR text: UKKK 210000Z 27007MPS CAVOK 04/M00 Q1010 R26/290050 TEMPO 30010G17MPS
Conditions at: UKKK (KIEV/ZHYLIANY , UA) observed 0000 UTC 21 February 2019
Temperature: 4.0°C (39°F)
Dewpoint: 0.0°C (32°F) [RH = 75%]
Pressure (altimeter): 29.82 inches Hg (1010.0 mb)
Winds: from the W (270 degrees) at 16 MPH (14 knots; 7.2 m/s)
Visibility: 6 or more miles (10+ km)
Ceiling: ceiling and visibility are OK
Clouds: unknown
Weather: no significant weather observed at this time

METAR text: UKKK 202330Z 27006MPS 9999 BKN033 04/00 Q1011 R26/290050 NOSIG
Conditions at: UKKK (KIEV/ZHYLIANY , UA) observed 2330 UTC 20 February 2019
Temperature: 4.0°C (39°F)
Dewpoint: 0.0°C (32°F) [RH = 75%]
Pressure (altimeter): 29.85 inches Hg (1011.0 mb)
Winds: from the W (270 degrees) at 14 MPH (12 knots; 6.2 m/s)
Visibility: 6 or more miles (10+ km)
Ceiling: 3300 feet AGL
Clouds: broken clouds at 3300 feet AGL
Weather: no significant weather observed at this time

METAR text: UKKK 202300Z 27006MPS 9999 BKN035 04/00 Q1011 R26/290050 NOSIG
Conditions at: UKKK (KIEV/ZHYLIANY , UA) observed 2300 UTC 20 February 2019
Temperature: 4.0°C (39°F)
Dewpoint: 0.0°C (32°F) [RH = 75%]
Pressure (altimeter): 29.85 inches Hg (1011.0 mb)
Winds: from the W (270 degrees) at 14 MPH (12 knots; 6.2 m/s)
Visibility: 6 or more miles (10+ km)
Ceiling: 3500 feet AGL
Clouds: broken clouds at 3500 feet AGL
Weather: no significant weather observed at this time

METAR text: UKKK 202230Z 27006MPS CAVOK 04/00 Q1011 R26/290050 NOSIG
Conditions at: UKKK (KIEV/ZHYLIANY , UA) observed 2230 UTC 20 February 2019
Temperature: 4.0°C (39°F)
Dewpoint: 0.0°C (32°F) [RH = 75%]
Pressure (altimeter): 29.85 inches Hg (1011.0 mb)
Winds: from the W (270 degrees) at 14 MPH (12 knots; 6.2 m/s)
Visibility: 6 or more miles (10+ km)
Ceiling: ceiling and visibility are OK
Clouds: unknown
Weather: no significant weather observed at this time

METAR text: UKKK 202200Z 26007MPS CAVOK 04/00 Q1011 R26/290050 NOSIG
Conditions at: UKKK (KIEV/ZHYLIANY , UA) observed 2200 UTC 20 February 2019
Temperature: 4.0°C (39°F)
Dewpoint: 0.0°C (32°F) [RH = 75%]
Pressure (altimeter): 29.85 inches Hg (1011.0 mb)
Winds: from the W (260 degrees) at 16 MPH (14 knots; 7.2 m/s)
Visibility: 6 or more miles (10+ km)
Ceiling: ceiling and visibility are OK
Clouds: unknown
Weather: no significant weather observed at this time

METAR text: UKKK 202130Z 26006MPS CAVOK 04/M00 Q1011 R26/290050 NOSIG
Conditions at: UKKK (KIEV/ZHYLIANY , UA) observed 2130 UTC 20 February 2019
Temperature: 4.0°C (39°F)
Dewpoint: 0.0°C (32°F) [RH = 75%]
Pressure (altimeter): 29.85 inches Hg (1011.0 mb)
Winds: from the W (260 degrees) at 14 MPH (12 knots; 6.2 m/s)
Visibility: 6 or more miles (10+ km)
Ceiling: ceiling and visibility are OK
Clouds: unknown
Weather: no significant weather observed at this time

METAR text: UKKK 202100Z 26006MPS CAVOK 04/M00 Q1011 R26/290050 NOSIG
Conditions at: UKKK (KIEV/ZHYLIANY , UA) observed 2100 UTC 20 February 2019
Temperature: 4.0°C (39°F)
Dewpoint: 0.0°C (32°F) [RH = 75%]
Pressure (altimeter): 29.85 inches Hg (1011.0 mb)
Winds: from the W (260 degrees) at 14 MPH (12 knots; 6.2 m/s)
Visibility: 6 or more miles (10+ km)
Ceiling: ceiling and visibility are OK
Clouds: unknown
Weather: no significant weather observed at this time

METAR text: UKKK 202030Z 26006MPS CAVOK 04/M00 Q1011 R26/290050 NOSIG
Conditions at: UKKK (KIEV/ZHYLIANY , UA) observed 2030 UTC 20 February 2019
Temperature: 4.0°C (39°F)
Dewpoint: 0.0°C (32°F) [RH = 75%]
Pressure (altimeter): 29.85 inches Hg (1011.0 mb)
Winds: from the W (260 degrees) at 14 MPH (12 knots; 6.2 m/s)
Visibility: 6 or more miles (10+ km)
Ceiling: ceiling and visibility are OK
Clouds: unknown
Weather: no significant weather observed at this time

METAR text: UKKK 202000Z 26006MPS 9999 BKN041 04/M00 Q1011 R26/290050 NOSIG
Conditions at: UKKK (KIEV/ZHYLIANY , UA) observed 2000 UTC 20 February 2019
Temperature: 4.0°C (39°F)
Dewpoint: 0.0°C (32°F) [RH = 75%]
Pressure (altimeter): 29.85 inches Hg (1011.0 mb)
Winds: from the W (260 degrees) at 14 MPH (12 knots; 6.2 m/s)
Visibility: 6 or more miles (10+ km)
Ceiling: 4100 feet AGL
Clouds: broken clouds at 4100 feet AGL
Weather: no significant weather observed at this time

METAR text: UKKK 201930Z 27006MPS 9999 BKN047 04/00 Q1012 R26/290050 NOSIG
Conditions at: UKKK (KIEV/ZHYLIANY , UA) observed 1930 UTC 20 February 2019
Temperature: 4.0°C (39°F)
Dewpoint: 0.0°C (32°F) [RH = 75%]
Pressure (altimeter): 29.88 inches Hg (1012.0 mb)
Winds: from the W (270 degrees) at 14 MPH (12 knots; 6.2 m/s)
Visibility: 6 or more miles (10+ km)
Ceiling: 4700 feet AGL
Clouds: broken clouds at 4700 feet AGL
Weather: no significant weather observed at this time

METAR text: UKKK 201900Z 27006MPS CAVOK 04/00 Q1012 R26/290050 NOSIG
Conditions at: UKKK (KIEV/ZHYLIANY , UA) observed 1900 UTC 20 February 2019
Temperature: 4.0°C (39°F)
Dewpoint: 0.0°C (32°F) [RH = 75%]
Pressure (altimeter): 29.88 inches Hg (1012.0 mb)
Winds: from the W (270 degrees) at 14 MPH (12 knots; 6.2 m/s)
Visibility: 6 or more miles (10+ km)
Ceiling: ceiling and visibility are OK
Clouds: unknown
Weather: no significant weather observed at this time

METAR text: UKKK 201830Z 27006MPS CAVOK 04/00 Q1012 R26/290145 NOSIG
Conditions at: UKKK (KIEV/ZHYLIANY , UA) observed 1830 UTC 20 February 2019
Temperature: 4.0°C (39°F)
Dewpoint: 0.0°C (32°F) [RH = 75%]
Pressure (altimeter): 29.88 inches Hg (1012.0 mb)
Winds: from the W (270 degrees) at 14 MPH (12 knots; 6.2 m/s)
Visibility: 6 or more miles (10+ km)
Ceiling: ceiling and visibility are OK
Clouds: unknown
Weather: no significant weather observed at this time

METAR text: UKKK 201800Z 27006MPS CAVOK 04/00 Q1012 R26/290145 NOSIG
Conditions at: UKKK (KIEV/ZHYLIANY , UA) observed 1800 UTC 20 February 2019
Temperature: 4.0°C (39°F)
Dewpoint: 0.0°C (32°F) [RH = 75%]
Pressure (altimeter): 29.88 inches Hg (1012.0 mb)
Winds: from the W (270 degrees) at 14 MPH (12 knots; 6.2 m/s)
Visibility: 6 or more miles (10+ km)
Ceiling: ceiling and visibility are OK
Clouds: unknown
Weather: no significant weather observed at this time

METAR text: UKKK 201730Z 27006MPS CAVOK 04/01 Q1012 R26/290145 NOSIG
Conditions at: UKKK (KIEV/ZHYLIANY , UA) observed 1730 UTC 20 February 2019
Temperature: 4.0°C (39°F)
Dewpoint: 1.0°C (34°F) [RH = 81%]
Pressure (altimeter): 29.88 inches Hg (1012.0 mb)
Winds: from the W (270 degrees) at 14 MPH (12 knots; 6.2 m/s)
Visibility: 6 or more miles (10+ km)
Ceiling: ceiling and visibility are OK
Clouds: unknown
Weather: no significant weather observed at this time

METAR text: UKKK 201700Z 26004MPS CAVOK 04/00 Q1012 R26/290145 NOSIG
Conditions at: UKKK (KIEV/ZHYLIANY , UA) observed 1700 UTC 20 February 2019
Temperature: 4.0°C (39°F)
Dewpoint: 0.0°C (32°F) [RH = 75%]
Pressure (altimeter): 29.88 inches Hg (1012.0 mb)
Winds: from the W (260 degrees) at 9 MPH (8 knots; 4.1 m/s)
Visibility: 6 or more miles (10+ km)
Ceiling: ceiling and visibility are OK
Clouds: unknown
Weather: no significant weather observed at this time

METAR text: UKKK 201630Z 27005MPS CAVOK 05/00 Q1011 R26/290145 NOSIG
Conditions at: UKKK (KIEV/ZHYLIANY , UA) observed 1630 UTC 20 February 2019
Temperature: 5.0°C (41°F)
Dewpoint: 0.0°C (32°F) [RH = 70%]
Pressure (altimeter): 29.85 inches Hg (1011.0 mb)
Winds: from the W (270 degrees) at 12 MPH (10 knots; 5.1 m/s)
Visibility: 6 or more miles (10+ km)
Ceiling: ceiling and visibility are OK
Clouds: unknown
Weather: no significant weather observed at this time

METAR text: UKKK 201600Z 26005MPS CAVOK 06/02 Q1011 R26/290145 NOSIG
Conditions at: UKKK (KIEV/ZHYLIANY , UA) observed 1600 UTC 20 February 2019
Temperature: 6.0°C (43°F)
Dewpoint: 2.0°C (36°F) [RH = 75%]
Pressure (altimeter): 29.85 inches Hg (1011.0 mb)
Winds: from the W (260 degrees) at 12 MPH (10 knots; 5.1 m/s)
Visibility: 6 or more miles (10+ km)
Ceiling: ceiling and visibility are OK
Clouds: unknown
Weather: no significant weather observed at this time

METAR text: UKKK 201530Z 26005MPS CAVOK 06/02 Q1011 R26/290145 NOSIG
Conditions at: UKKK (KIEV/ZHYLIANY , UA) observed 1530 UTC 20 February 2019
Temperature: 6.0°C (43°F)
Dewpoint: 2.0°C (36°F) [RH = 75%]
Pressure (altimeter): 29.85 inches Hg (1011.0 mb)
Winds: from the W (260 degrees) at 12 MPH (10 knots; 5.1 m/s)
Visibility: 6 or more miles (10+ km)
Ceiling: ceiling and visibility are OK
Clouds: unknown
Weather: no significant weather observed at this time

METAR text: UKKK 201500Z 26004MPS 9999 BKN049 06/02 Q1011 R26/290145 NOSIG
Conditions at: UKKK (KIEV/ZHYLIANY , UA) observed 1500 UTC 20 February 2019
Temperature: 6.0°C (43°F)
Dewpoint: 2.0°C (36°F) [RH = 75%]
Pressure (altimeter): 29.85 inches Hg (1011.0 mb)
Winds: from the W (260 degrees) at 9 MPH (8 knots; 4.1 m/s)
Visibility: 6 or more miles (10+ km)
Ceiling: 4900 feet AGL
Clouds: broken clouds at 4900 feet AGL
Weather: no significant weather observed at this time

METAR text: UKKK 201430Z 26004MPS CAVOK 06/02 Q1011 R26/290145 NOSIG
Conditions at: UKKK (KIEV/ZHYLIANY , UA) observed 1430 UTC 20 February 2019
Temperature: 6.0°C (43°F)
Dewpoint: 2.0°C (36°F) [RH = 75%]
Pressure (altimeter): 29.85 inches Hg (1011.0 mb)
Winds: from the W (260 degrees) at 9 MPH (8 knots; 4.1 m/s)
Visibility: 6 or more miles (10+ km)
Ceiling: ceiling and visibility are OK
Clouds: unknown
Weather: no significant weather observed at this time

Forecast for: COR
Text: TAF COR UKKK 212305Z 2200/2224 35005G11MPS 9999 BKN015 TXM03/2212Z TNM06/2205Z
Forecast period: 0000 to 0600 UTC 22 February 2019
Forecast type: FROM: standard forecast or significant change
Winds: from the N (350 degrees) at 12 MPH (10 knots; 5.1 m/s)
gusting to 24 MPH (21 knots; 10.8 m/s)
Visibility: 6 or more miles 10+ km)
Ceiling: 1500 feet AGL
Clouds: broken clouds at 1500 feet AGL
Weather: no significant weather forecast for this period
Text: TEMPO 2200/2206 01006G13MPS 2000 -SHSN BR BKN005 SCT013CB
Forecast period: 0000 to 0600 UTC 22 February 2019
Forecast type: TEMPORARY: The following changes expected for less than half the time period
Winds: from the N (10 degrees) at 14 MPH (12 knots; 6.2 m/s)
gusting to 29 MPH (25 knots; 12.9 m/s)
Visibility: 1.24 miles (2.00 km)
Ceiling: 500 feet AGL
Clouds: broken clouds at 500 feet AGL
scattered clouds at 1300 feet AGL
Weather: -SHSN BR  (light snow showers, mist)
Text: BECMG 2206/2208 35006G12MPS
Forecast period: 0600 UTC 22 February 2019 to 0000 UTC 23 February 2019
Forecast type: BECOMING: Conditions expected to become as follows by 0800 UTC 22 February 2019
Winds: from the N (350 degrees) at 14 MPH (12 knots; 6.2 m/s)
gusting to 26 MPH (23 knots; 11.8 m/s)
Visibility: 6 or more miles 10+ km)
Ceiling: 1500 feet AGL
Clouds: broken clouds at 1500 feet AGL
Weather: no significant weather forecast for this period
Text: TEMPO 2210/2220 01009G14MPS 2100 -SHSN BKN007 SCT012CB
Forecast period: 1000 to 2000 UTC 22 February 2019
Forecast type: TEMPORARY: The following changes expected for less than half the time period
Winds: from the N (10 degrees) at 20 MPH (17 knots; 8.7 m/s)
gusting to 31 MPH (27 knots; 13.9 m/s)
Visibility: 1.30 miles (2.09 km)
Ceiling: 700 feet AGL
Clouds: broken clouds at 700 feet AGL
scattered clouds at 1200 feet AGL
Weather: -SHSN  (light snow showers)